sensor_id;sensor_type;location;lat;lon;timestamp;P1;durP1;ratioP1;P2;durP2;ratioP2
57467;SDS011;43311;51.196;7.518;2023-08-07T00:01:03;3.05;;;0.80;;
57467;SDS011;43311;51.196;7.518;2023-08-07T00:03:28;3.08;;;1.48;;
57467;SDS011;43311;51.196;7.518;2023-08-07T00:05:54;1.30;;;0.70;;
57467;SDS011;43311;51.196;7.518;2023-08-07T00:08:20;2.33;;;0.70;;
57467;SDS011;43311;51.196;7.518;2023-08-07T00:10:46;1.50;;;0.70;;
57467;SDS011;43311;51.196;7.518;2023-08-07T00:13:12;3.00;;;0.60;;
57467;SDS011;43311;51.196;7.518;2023-08-07T00:15:38;1.27;;;0.82;;
57467;SDS011;43311;51.196;7.518;2023-08-07T00:18:04;1.55;;;0.80;;
57467;SDS011;43311;51.196;7.518;2023-08-07T00:20:29;1.25;;;0.60;;
57467;SDS011;43311;51.196;7.518;2023-08-07T00:22:54;2.15;;;0.50;;
57467;SDS011;43311;51.196;7.518;2023-08-07T00:25:20;0.70;;;0.40;;
57467;SDS011;43311;51.196;7.518;2023-08-07T00:27:45;2.15;;;0.57;;
57467;SDS011;43311;51.196;7.518;2023-08-07T00:30:12;1.45;;;0.52;;
57467;SDS011;43311;51.196;7.518;2023-08-07T00:32:37;0.95;;;0.30;;
57467;SDS011;43311;51.196;7.518;2023-08-07T00:35:03;0.70;;;0.25;;
57467;SDS011;43311;51.196;7.518;2023-08-07T00:37:30;1.48;;;0.30;;
57467;SDS011;43311;51.196;7.518;2023-08-07T00:39:55;2.25;;;0.20;;
57467;SDS011;43311;51.196;7.518;2023-08-07T00:42:21;0.40;;;0.30;;
57467;SDS011;43311;51.196;7.518;2023-08-07T00:44:46;0.30;;;0.30;;
57467;SDS011;43311;51.196;7.518;2023-08-07T00:47:11;0.52;;;0.22;;
57467;SDS011;43311;51.196;7.518;2023-08-07T00:49:37;2.08;;;0.40;;
57467;SDS011;43311;51.196;7.518;2023-08-07T00:52:03;2.78;;;0.30;;
57467;SDS011;43311;51.196;7.518;2023-08-07T00:54:29;1.33;;;0.30;;
57467;SDS011;43311;51.196;7.518;2023-08-07T00:56:56;0.35;;;0.30;;
57467;SDS011;43311;51.196;7.518;2023-08-07T00:59:31;1.80;;;0.50;;
57467;SDS011;43311;51.196;7.518;2023-08-07T01:01:57;0.82;;;0.30;;
57467;SDS011;43311;51.196;7.518;2023-08-07T01:04:23;1.25;;;0.20;;
57467;SDS011;43311;51.196;7.518;2023-08-07T01:06:48;1.70;;;0.20;;
57467;SDS011;43311;51.196;7.518;2023-08-07T01:09:14;0.40;;;0.30;;
57467;SDS011;43311;51.196;7.518;2023-08-07T01:11:42;1.88;;;0.40;;
57467;SDS011;43311;51.196;7.518;2023-08-07T01:14:20;2.30;;;0.38;;
57467;SDS011;43311;51.196;7.518;2023-08-07T01:19:40;1.55;;;0.50;;
57467;SDS011;43311;51.196;7.518;2023-08-07T01:24:38;0.82;;;0.52;;
57467;SDS011;43311;51.196;7.518;2023-08-07T01:29:55;1.25;;;0.70;;
57467;SDS011;43311;51.196;7.518;2023-08-07T01:35:43;3.42;;;0.93;;
57467;SDS011;43311;51.196;7.518;2023-08-07T01:38:12;2.20;;;1.30;;
57467;SDS011;43311;51.196;7.518;2023-08-07T01:40:39;2.38;;;1.23;;
57467;SDS011;43311;51.196;7.518;2023-08-07T01:43:05;2.28;;;1.30;;
57467;SDS011;43311;51.196;7.518;2023-08-07T01:45:31;2.90;;;1.30;;
57467;SDS011;43311;51.196;7.518;2023-08-07T01:47:56;1.90;;;1.00;;
57467;SDS011;43311;51.196;7.518;2023-08-07T01:50:22;2.08;;;1.00;;
57467;SDS011;43311;51.196;7.518;2023-08-07T01:52:48;3.10;;;1.15;;
57467;SDS011;43311;51.196;7.518;2023-08-07T01:55:14;2.90;;;0.88;;
57467;SDS011;43311;51.196;7.518;2023-08-07T01:57:48;1.70;;;0.80;;
57467;SDS011;43311;51.196;7.518;2023-08-07T02:00:14;1.00;;;0.60;;
57467;SDS011;43311;51.196;7.518;2023-08-07T02:02:42;1.00;;;0.50;;
57467;SDS011;43311;51.196;7.518;2023-08-07T02:05:09;1.42;;;0.70;;
57467;SDS011;43311;51.196;7.518;2023-08-07T02:07:35;0.75;;;0.35;;
57467;SDS011;43311;51.196;7.518;2023-08-07T02:10:01;0.50;;;0.32;;
57467;SDS011;43311;51.196;7.518;2023-08-07T02:12:27;1.10;;;0.40;;
57467;SDS011;43311;51.196;7.518;2023-08-07T02:14:54;1.75;;;0.40;;
57467;SDS011;43311;51.196;7.518;2023-08-07T02:17:20;2.13;;;0.80;;
57467;SDS011;43311;51.196;7.518;2023-08-07T02:19:47;1.80;;;0.30;;
57467;SDS011;43311;51.196;7.518;2023-08-07T02:22:12;1.40;;;0.30;;
57467;SDS011;43311;51.196;7.518;2023-08-07T02:24:37;1.77;;;0.30;;
57467;SDS011;43311;51.196;7.518;2023-08-07T02:27:05;0.85;;;0.40;;
57467;SDS011;43311;51.196;7.518;2023-08-07T02:29:31;0.50;;;0.28;;
57467;SDS011;43311;51.196;7.518;2023-08-07T02:31:59;2.08;;;0.35;;
57467;SDS011;43311;51.196;7.518;2023-08-07T02:34:25;2.60;;;0.40;;
57467;SDS011;43311;51.196;7.518;2023-08-07T02:36:50;0.85;;;0.30;;
57467;SDS011;43311;51.196;7.518;2023-08-07T02:39:16;0.50;;;0.47;;
57467;SDS011;43311;51.196;7.518;2023-08-07T02:41:42;0.55;;;0.30;;
57467;SDS011;43311;51.196;7.518;2023-08-07T02:44:07;0.47;;;0.30;;
57467;SDS011;43311;51.196;7.518;2023-08-07T02:46:32;0.85;;;0.40;;
57467;SDS011;43311;51.196;7.518;2023-08-07T02:49:01;1.35;;;0.30;;
57467;SDS011;43311;51.196;7.518;2023-08-07T02:51:26;0.93;;;0.30;;
57467;SDS011;43311;51.196;7.518;2023-08-07T02:53:52;0.52;;;0.22;;
57467;SDS011;43311;51.196;7.518;2023-08-07T02:56:17;2.42;;;0.30;;
57467;SDS011;43311;51.196;7.518;2023-08-07T02:58:43;1.17;;;0.32;;
57467;SDS011;43311;51.196;7.518;2023-08-07T03:01:08;0.40;;;0.20;;
57467;SDS011;43311;51.196;7.518;2023-08-07T03:03:34;1.38;;;0.38;;
57467;SDS011;43311;51.196;7.518;2023-08-07T03:06:00;1.88;;;0.30;;
57467;SDS011;43311;51.196;7.518;2023-08-07T03:08:25;2.28;;;0.30;;
57467;SDS011;43311;51.196;7.518;2023-08-07T03:10:52;0.57;;;0.22;;
57467;SDS011;43311;51.196;7.518;2023-08-07T03:13:19;0.68;;;0.30;;
57467;SDS011;43311;51.196;7.518;2023-08-07T03:15:44;0.75;;;0.40;;
57467;SDS011;43311;51.196;7.518;2023-08-07T03:18:10;0.28;;;0.20;;
57467;SDS011;43311;51.196;7.518;2023-08-07T03:20:38;2.55;;;0.30;;
57467;SDS011;43311;51.196;7.518;2023-08-07T03:25:29;4.38;;;0.45;;
57467;SDS011;43311;51.196;7.518;2023-08-07T03:27:55;0.68;;;0.30;;
57467;SDS011;43311;51.196;7.518;2023-08-07T03:30:21;0.60;;;0.43;;
57467;SDS011;43311;51.196;7.518;2023-08-07T03:32:47;2.13;;;0.70;;
57467;SDS011;43311;51.196;7.518;2023-08-07T03:35:13;0.98;;;0.52;;
57467;SDS011;43311;51.196;7.518;2023-08-07T03:37:39;1.85;;;0.73;;
57467;SDS011;43311;51.196;7.518;2023-08-07T03:40:06;1.35;;;0.80;;
57467;SDS011;43311;51.196;7.518;2023-08-07T03:42:32;1.58;;;1.00;;
57467;SDS011;43311;51.196;7.518;2023-08-07T03:44:58;1.63;;;0.88;;
57467;SDS011;43311;51.196;7.518;2023-08-07T03:47:23;1.30;;;0.90;;
57467;SDS011;43311;51.196;7.518;2023-08-07T03:49:50;2.45;;;1.13;;
57467;SDS011;43311;51.196;7.518;2023-08-07T03:52:16;2.38;;;1.45;;
57467;SDS011;43311;51.196;7.518;2023-08-07T03:54:43;2.03;;;1.23;;
57467;SDS011;43311;51.196;7.518;2023-08-07T03:57:09;2.97;;;2.00;;
57467;SDS011;43311;51.196;7.518;2023-08-07T03:59:36;5.80;;;1.85;;
57467;SDS011;43311;51.196;7.518;2023-08-07T04:02:02;3.78;;;1.67;;
57467;SDS011;43311;51.196;7.518;2023-08-07T04:04:28;2.97;;;1.77;;
57467;SDS011;43311;51.196;7.518;2023-08-07T04:06:54;4.20;;;1.63;;
57467;SDS011;43311;51.196;7.518;2023-08-07T04:09:19;4.32;;;1.02;;
57467;SDS011;43311;51.196;7.518;2023-08-07T04:11:45;1.88;;;1.30;;
57467;SDS011;43311;51.196;7.518;2023-08-07T04:14:10;2.50;;;1.20;;
57467;SDS011;43311;51.196;7.518;2023-08-07T04:16:36;3.08;;;0.90;;
57467;SDS011;43311;51.196;7.518;2023-08-07T04:19:02;1.80;;;1.35;;
57467;SDS011;43311;51.196;7.518;2023-08-07T04:21:28;1.38;;;0.90;;
57467;SDS011;43311;51.196;7.518;2023-08-07T04:23:55;2.58;;;0.93;;
57467;SDS011;43311;51.196;7.518;2023-08-07T04:26:20;1.52;;;1.15;;
57467;SDS011;43311;51.196;7.518;2023-08-07T04:28:46;3.00;;;1.10;;
57467;SDS011;43311;51.196;7.518;2023-08-07T04:31:11;2.85;;;1.55;;
57467;SDS011;43311;51.196;7.518;2023-08-07T04:33:37;3.40;;;1.85;;
57467;SDS011;43311;51.196;7.518;2023-08-07T04:36:03;4.03;;;2.08;;
57467;SDS011;43311;51.196;7.518;2023-08-07T04:38:29;7.05;;;2.47;;
57467;SDS011;43311;51.196;7.518;2023-08-07T04:40:54;5.70;;;2.70;;
57467;SDS011;43311;51.196;7.518;2023-08-07T04:43:20;8.68;;;2.67;;
57467;SDS011;43311;51.196;7.518;2023-08-07T04:45:45;4.50;;;3.00;;
57467;SDS011;43311;51.196;7.518;2023-08-07T04:48:11;9.07;;;3.63;;
57467;SDS011;43311;51.196;7.518;2023-08-07T04:50:38;11.38;;;4.28;;
57467;SDS011;43311;51.196;7.518;2023-08-07T04:53:04;7.45;;;4.07;;
57467;SDS011;43311;51.196;7.518;2023-08-07T04:55:30;10.20;;;4.45;;
57467;SDS011;43311;51.196;7.518;2023-08-07T04:57:56;10.43;;;4.53;;
57467;SDS011;43311;51.196;7.518;2023-08-07T05:00:22;9.80;;;4.50;;
57467;SDS011;43311;51.196;7.518;2023-08-07T05:02:48;8.45;;;3.42;;
57467;SDS011;43311;51.196;7.518;2023-08-07T05:05:14;7.53;;;3.05;;
57467;SDS011;43311;51.196;7.518;2023-08-07T05:07:41;6.28;;;3.42;;
57467;SDS011;43311;51.196;7.518;2023-08-07T05:10:08;7.20;;;2.67;;
57467;SDS011;43311;51.196;7.518;2023-08-07T05:12:35;4.85;;;2.30;;
57467;SDS011;43311;51.196;7.518;2023-08-07T05:15:00;4.68;;;2.15;;
57467;SDS011;43311;51.196;7.518;2023-08-07T05:17:26;4.45;;;1.90;;
57467;SDS011;43311;51.196;7.518;2023-08-07T05:19:52;3.95;;;1.90;;
57467;SDS011;43311;51.196;7.518;2023-08-07T05:22:17;5.88;;;1.70;;
57467;SDS011;43311;51.196;7.518;2023-08-07T05:24:43;7.68;;;2.50;;
57467;SDS011;43311;51.196;7.518;2023-08-07T05:27:13;9.65;;;3.00;;
57467;SDS011;43311;51.196;7.518;2023-08-07T05:29:38;7.95;;;3.63;;
57467;SDS011;43311;51.196;7.518;2023-08-07T05:32:22;9.32;;;4.00;;
57467;SDS011;43311;51.196;7.518;2023-08-07T05:34:47;7.18;;;3.20;;
57467;SDS011;43311;51.196;7.518;2023-08-07T05:37:12;8.38;;;3.78;;
57467;SDS011;43311;51.196;7.518;2023-08-07T05:39:38;7.60;;;3.47;;
57467;SDS011;43311;51.196;7.518;2023-08-07T05:42:04;10.35;;;3.83;;
57467;SDS011;43311;51.196;7.518;2023-08-07T05:44:30;11.25;;;4.05;;
57467;SDS011;43311;51.196;7.518;2023-08-07T05:46:55;13.70;;;4.55;;
57467;SDS011;43311;51.196;7.518;2023-08-07T05:49:20;8.25;;;4.32;;
57467;SDS011;43311;51.196;7.518;2023-08-07T05:51:46;11.20;;;3.60;;
57467;SDS011;43311;51.196;7.518;2023-08-07T05:54:11;10.35;;;3.20;;
57467;SDS011;43311;51.196;7.518;2023-08-07T05:56:37;8.85;;;2.88;;
57467;SDS011;43311;51.196;7.518;2023-08-07T05:59:03;10.20;;;2.35;;
57467;SDS011;43311;51.196;7.518;2023-08-07T06:01:29;8.02;;;2.40;;
57467;SDS011;43311;51.196;7.518;2023-08-07T06:03:56;11.88;;;3.95;;
57467;SDS011;43311;51.196;7.518;2023-08-07T06:06:26;7.25;;;2.55;;
57467;SDS011;43311;51.196;7.518;2023-08-07T06:08:53;9.13;;;2.40;;
57467;SDS011;43311;51.196;7.518;2023-08-07T06:11:21;3.35;;;1.38;;
57467;SDS011;43311;51.196;7.518;2023-08-07T06:13:48;5.03;;;2.33;;
57467;SDS011;43311;51.196;7.518;2023-08-07T06:16:14;3.10;;;1.58;;
57467;SDS011;43311;51.196;7.518;2023-08-07T06:18:39;10.57;;;2.00;;
57467;SDS011;43311;51.196;7.518;2023-08-07T06:21:04;3.15;;;1.77;;
57467;SDS011;43311;51.196;7.518;2023-08-07T06:23:32;3.55;;;1.38;;
57467;SDS011;43311;51.196;7.518;2023-08-07T06:25:58;2.42;;;1.40;;
57467;SDS011;43311;51.196;7.518;2023-08-07T06:28:23;2.05;;;0.90;;
57467;SDS011;43311;51.196;7.518;2023-08-07T06:30:49;2.28;;;1.00;;
57467;SDS011;43311;51.196;7.518;2023-08-07T06:33:15;3.40;;;1.42;;
57467;SDS011;43311;51.196;7.518;2023-08-07T06:35:40;2.85;;;1.48;;
57467;SDS011;43311;51.196;7.518;2023-08-07T06:38:07;5.45;;;2.03;;
57467;SDS011;43311;51.196;7.518;2023-08-07T06:40:34;5.32;;;2.15;;
57467;SDS011;43311;51.196;7.518;2023-08-07T06:43:00;2.67;;;1.27;;
57467;SDS011;43311;51.196;7.518;2023-08-07T06:45:25;2.03;;;1.02;;
57467;SDS011;43311;51.196;7.518;2023-08-07T06:47:51;1.60;;;0.73;;
57467;SDS011;43311;51.196;7.518;2023-08-07T06:50:17;1.83;;;0.70;;
57467;SDS011;43311;51.196;7.518;2023-08-07T06:52:42;1.00;;;0.80;;
57467;SDS011;43311;51.196;7.518;2023-08-07T06:55:08;1.23;;;0.80;;
57467;SDS011;43311;51.196;7.518;2023-08-07T06:57:34;3.25;;;0.80;;
57467;SDS011;43311;51.196;7.518;2023-08-07T06:59:59;2.70;;;1.08;;
57467;SDS011;43311;51.196;7.518;2023-08-07T07:02:25;3.00;;;0.93;;
57467;SDS011;43311;51.196;7.518;2023-08-07T07:04:50;2.00;;;1.00;;
57467;SDS011;43311;51.196;7.518;2023-08-07T07:07:16;2.33;;;0.80;;
57467;SDS011;43311;51.196;7.518;2023-08-07T07:09:41;1.48;;;0.98;;
57467;SDS011;43311;51.196;7.518;2023-08-07T07:12:06;0.88;;;0.80;;
57467;SDS011;43311;51.196;7.518;2023-08-07T07:14:32;2.17;;;0.75;;
57467;SDS011;43311;51.196;7.518;2023-08-07T07:16:59;3.30;;;0.65;;
57467;SDS011;43311;51.196;7.518;2023-08-07T07:19:25;0.80;;;0.60;;
57467;SDS011;43311;51.196;7.518;2023-08-07T07:21:51;1.58;;;0.80;;
57467;SDS011;43311;51.196;7.518;2023-08-07T07:24:17;2.30;;;0.95;;
57467;SDS011;43311;51.196;7.518;2023-08-07T07:26:42;2.15;;;1.15;;
57467;SDS011;43311;51.196;7.518;2023-08-07T07:29:07;1.33;;;0.93;;
57467;SDS011;43311;51.196;7.518;2023-08-07T07:31:33;2.53;;;1.50;;
57467;SDS011;43311;51.196;7.518;2023-08-07T07:33:58;4.40;;;2.22;;
57467;SDS011;43311;51.196;7.518;2023-08-07T07:36:24;3.00;;;1.30;;
57467;SDS011;43311;51.196;7.518;2023-08-07T07:38:49;3.40;;;1.40;;
57467;SDS011;43311;51.196;7.518;2023-08-07T07:41:15;2.38;;;1.40;;
57467;SDS011;43311;51.196;7.518;2023-08-07T07:43:41;2.85;;;1.33;;
57467;SDS011;43311;51.196;7.518;2023-08-07T07:46:06;2.85;;;1.73;;
57467;SDS011;43311;51.196;7.518;2023-08-07T07:48:32;2.35;;;1.30;;
57467;SDS011;43311;51.196;7.518;2023-08-07T07:50:58;2.50;;;1.27;;
57467;SDS011;43311;51.196;7.518;2023-08-07T07:53:27;1.13;;;0.80;;
57467;SDS011;43311;51.196;7.518;2023-08-07T07:55:53;1.75;;;0.90;;
57467;SDS011;43311;51.196;7.518;2023-08-07T07:58:19;0.90;;;0.70;;
57467;SDS011;43311;51.196;7.518;2023-08-07T08:00:45;1.13;;;0.68;;
57467;SDS011;43311;51.196;7.518;2023-08-07T08:03:11;3.20;;;1.10;;
57467;SDS011;43311;51.196;7.518;2023-08-07T08:05:37;1.52;;;1.08;;
57467;SDS011;43311;51.196;7.518;2023-08-07T08:08:03;2.00;;;1.00;;
57467;SDS011;43311;51.196;7.518;2023-08-07T08:10:29;2.75;;;0.80;;
57467;SDS011;43311;51.196;7.518;2023-08-07T08:15:47;1.00;;;0.80;;
57467;SDS011;43311;51.196;7.518;2023-08-07T08:18:13;0.77;;;0.68;;
57467;SDS011;43311;51.196;7.518;2023-08-07T08:20:38;0.98;;;0.60;;
57467;SDS011;43311;51.196;7.518;2023-08-07T08:23:04;1.45;;;0.65;;
57467;SDS011;43311;51.196;7.518;2023-08-07T08:25:30;2.05;;;0.80;;
57467;SDS011;43311;51.196;7.518;2023-08-07T08:27:56;0.80;;;0.50;;
57467;SDS011;43311;51.196;7.518;2023-08-07T08:30:21;1.10;;;0.52;;
57467;SDS011;43311;51.196;7.518;2023-08-07T08:32:47;0.93;;;0.60;;
57467;SDS011;43311;51.196;7.518;2023-08-07T08:35:13;0.93;;;0.63;;
57467;SDS011;43311;51.196;7.518;2023-08-07T08:37:38;2.58;;;1.02;;
57467;SDS011;43311;51.196;7.518;2023-08-07T08:40:04;1.08;;;0.70;;
57467;SDS011;43311;51.196;7.518;2023-08-07T08:42:31;3.92;;;0.85;;
57467;SDS011;43311;51.196;7.518;2023-08-07T08:44:57;2.78;;;1.08;;
57467;SDS011;43311;51.196;7.518;2023-08-07T08:47:27;0.95;;;0.60;;
57467;SDS011;43311;51.196;7.518;2023-08-07T08:50:07;0.90;;;0.70;;
57467;SDS011;43311;51.196;7.518;2023-08-07T08:52:35;0.80;;;0.55;;
57467;SDS011;43311;51.196;7.518;2023-08-07T08:55:02;3.05;;;0.50;;
57467;SDS011;43311;51.196;7.518;2023-08-07T08:57:28;1.30;;;0.55;;
57467;SDS011;43311;51.196;7.518;2023-08-07T08:59:55;1.38;;;0.77;;
57467;SDS011;43311;51.196;7.518;2023-08-07T09:02:21;0.93;;;0.70;;
57467;SDS011;43311;51.196;7.518;2023-08-07T09:04:47;1.33;;;0.60;;
57467;SDS011;43311;51.196;7.518;2023-08-07T09:07:13;1.10;;;1.00;;
57467;SDS011;43311;51.196;7.518;2023-08-07T09:09:40;1.27;;;1.00;;
57467;SDS011;43311;51.196;7.518;2023-08-07T09:12:08;2.67;;;1.25;;
57467;SDS011;43311;51.196;7.518;2023-08-07T09:14:41;1.45;;;0.90;;
57467;SDS011;43311;51.196;7.518;2023-08-07T09:17:06;3.25;;;1.38;;
57467;SDS011;43311;51.196;7.518;2023-08-07T09:19:33;3.85;;;1.60;;
57467;SDS011;43311;51.196;7.518;2023-08-07T09:21:58;4.53;;;2.20;;
57467;SDS011;43311;51.196;7.518;2023-08-07T09:24:24;3.97;;;2.30;;
57467;SDS011;43311;51.196;7.518;2023-08-07T09:26:50;4.30;;;2.53;;
57467;SDS011;43311;51.196;7.518;2023-08-07T09:29:18;8.35;;;3.60;;
57467;SDS011;43311;51.196;7.518;2023-08-07T09:31:44;7.00;;;3.60;;
57467;SDS011;43311;51.196;7.518;2023-08-07T09:34:12;11.00;;;4.25;;
57467;SDS011;43311;51.196;7.518;2023-08-07T09:36:39;7.95;;;3.70;;
57467;SDS011;43311;51.196;7.518;2023-08-07T09:39:06;8.55;;;4.82;;
57467;SDS011;43311;51.196;7.518;2023-08-07T09:41:31;10.25;;;4.93;;
57467;SDS011;43311;51.196;7.518;2023-08-07T09:43:57;7.35;;;4.35;;
57467;SDS011;43311;51.196;7.518;2023-08-07T09:46:23;8.02;;;4.85;;
57467;SDS011;43311;51.196;7.518;2023-08-07T09:48:50;10.63;;;4.40;;
57467;SDS011;43311;51.196;7.518;2023-08-07T09:51:16;11.35;;;5.72;;
57467;SDS011;43311;51.196;7.518;2023-08-07T09:53:41;10.13;;;5.03;;
57467;SDS011;43311;51.196;7.518;2023-08-07T09:56:07;14.60;;;5.75;;
57467;SDS011;43311;51.196;7.518;2023-08-07T09:58:32;11.57;;;5.50;;
57467;SDS011;43311;51.196;7.518;2023-08-07T10:01:07;10.52;;;5.22;;
57467;SDS011;43311;51.196;7.518;2023-08-07T10:03:34;16.45;;;5.07;;
57467;SDS011;43311;51.196;7.518;2023-08-07T10:06:00;21.10;;;6.55;;
57467;SDS011;43311;51.196;7.518;2023-08-07T10:08:26;10.68;;;5.20;;
57467;SDS011;43311;51.196;7.518;2023-08-07T10:10:53;14.43;;;6.40;;
57467;SDS011;43311;51.196;7.518;2023-08-07T10:13:18;10.50;;;5.45;;
57467;SDS011;43311;51.196;7.518;2023-08-07T10:15:44;15.98;;;5.38;;
57467;SDS011;43311;51.196;7.518;2023-08-07T10:21:44;12.75;;;4.82;;
57467;SDS011;43311;51.196;7.518;2023-08-07T10:24:16;9.52;;;4.43;;
57467;SDS011;43311;51.196;7.518;2023-08-07T10:26:43;12.10;;;4.93;;
57467;SDS011;43311;51.196;7.518;2023-08-07T10:29:11;8.93;;;4.20;;
57467;SDS011;43311;51.196;7.518;2023-08-07T10:31:39;9.55;;;4.10;;
57467;SDS011;43311;51.196;7.518;2023-08-07T10:34:08;10.55;;;5.20;;
57467;SDS011;43311;51.196;7.518;2023-08-07T10:36:34;6.78;;;3.83;;
57467;SDS011;43311;51.196;7.518;2023-08-07T10:39:07;6.95;;;3.28;;
57467;SDS011;43311;51.196;7.518;2023-08-07T10:41:41;8.57;;;3.10;;
57467;SDS011;43311;51.196;7.518;2023-08-07T10:44:22;11.15;;;3.53;;
57467;SDS011;43311;51.196;7.518;2023-08-07T10:46:51;9.05;;;4.03;;
57467;SDS011;43311;51.196;7.518;2023-08-07T10:51:57;18.45;;;4.03;;
57467;SDS011;43311;51.196;7.518;2023-08-07T10:54:23;9.13;;;4.18;;
57467;SDS011;43311;51.196;7.518;2023-08-07T10:56:53;7.80;;;3.40;;
57467;SDS011;43311;51.196;7.518;2023-08-07T10:59:19;9.23;;;4.22;;
57467;SDS011;43311;51.196;7.518;2023-08-07T11:01:48;9.63;;;3.70;;
57467;SDS011;43311;51.196;7.518;2023-08-07T11:04:16;11.43;;;3.80;;
57467;SDS011;43311;51.196;7.518;2023-08-07T11:06:43;13.95;;;3.92;;
57467;SDS011;43311;51.196;7.518;2023-08-07T11:09:12;15.93;;;4.20;;
57467;SDS011;43311;51.196;7.518;2023-08-07T11:11:44;9.55;;;4.10;;
57467;SDS011;43311;51.196;7.518;2023-08-07T11:14:16;13.15;;;4.68;;
57467;SDS011;43311;51.196;7.518;2023-08-07T11:16:49;13.43;;;4.13;;
57467;SDS011;43311;51.196;7.518;2023-08-07T11:19:18;14.30;;;3.72;;
57467;SDS011;43311;51.196;7.518;2023-08-07T11:21:44;15.00;;;5.32;;
57467;SDS011;43311;51.196;7.518;2023-08-07T11:24:12;12.77;;;4.10;;
57467;SDS011;43311;51.196;7.518;2023-08-07T11:26:38;12.77;;;4.32;;
57467;SDS011;43311;51.196;7.518;2023-08-07T11:29:05;14.98;;;4.90;;
57467;SDS011;43311;51.196;7.518;2023-08-07T11:31:34;16.48;;;5.93;;
57467;SDS011;43311;51.196;7.518;2023-08-07T11:34:00;16.05;;;5.30;;
57467;SDS011;43311;51.196;7.518;2023-08-07T11:36:28;10.93;;;4.37;;
57467;SDS011;43311;51.196;7.518;2023-08-07T11:38:59;15.55;;;4.25;;
57467;SDS011;43311;51.196;7.518;2023-08-07T11:41:31;12.07;;;4.05;;
57467;SDS011;43311;51.196;7.518;2023-08-07T11:43:58;8.60;;;3.20;;
57467;SDS011;43311;51.196;7.518;2023-08-07T11:47:10;11.20;;;3.63;;
57467;SDS011;43311;51.196;7.518;2023-08-07T11:49:36;13.30;;;3.15;;
57467;SDS011;43311;51.196;7.518;2023-08-07T11:52:02;10.23;;;4.07;;
57467;SDS011;43311;51.196;7.518;2023-08-07T11:54:28;10.15;;;2.92;;
57467;SDS011;43311;51.196;7.518;2023-08-07T11:56:53;9.70;;;3.35;;
57467;SDS011;43311;51.196;7.518;2023-08-07T11:59:19;12.23;;;3.47;;
57467;SDS011;43311;51.196;7.518;2023-08-07T12:01:45;16.92;;;3.53;;
57467;SDS011;43311;51.196;7.518;2023-08-07T12:04:11;15.68;;;3.97;;
57467;SDS011;43311;51.196;7.518;2023-08-07T12:06:37;11.63;;;3.13;;
57467;SDS011;43311;51.196;7.518;2023-08-07T12:09:07;8.85;;;3.28;;
57467;SDS011;43311;51.196;7.518;2023-08-07T12:11:37;14.60;;;4.28;;
57467;SDS011;43311;51.196;7.518;2023-08-07T12:14:03;6.90;;;2.83;;
57467;SDS011;43311;51.196;7.518;2023-08-07T12:16:32;11.52;;;2.67;;
57467;SDS011;43311;51.196;7.518;2023-08-07T12:18:58;11.00;;;3.30;;
57467;SDS011;43311;51.196;7.518;2023-08-07T12:21:24;11.93;;;3.83;;
57467;SDS011;43311;51.196;7.518;2023-08-07T12:23:56;11.05;;;3.03;;
57467;SDS011;43311;51.196;7.518;2023-08-07T12:26:22;9.57;;;3.65;;
57467;SDS011;43311;51.196;7.518;2023-08-07T12:28:49;10.48;;;3.17;;
57467;SDS011;43311;51.196;7.518;2023-08-07T12:31:23;12.50;;;3.45;;
57467;SDS011;43311;51.196;7.518;2023-08-07T12:36:43;7.68;;;2.58;;
57467;SDS011;43311;51.196;7.518;2023-08-07T12:39:09;10.43;;;3.03;;
57467;SDS011;43311;51.196;7.518;2023-08-07T12:41:34;7.35;;;2.50;;
57467;SDS011;43311;51.196;7.518;2023-08-07T12:44:00;14.60;;;3.38;;
57467;SDS011;43311;51.196;7.518;2023-08-07T12:46:27;10.18;;;2.97;;
57467;SDS011;43311;51.196;7.518;2023-08-07T12:48:55;10.10;;;2.53;;
57467;SDS011;43311;51.196;7.518;2023-08-07T12:51:21;11.93;;;3.53;;
57467;SDS011;43311;51.196;7.518;2023-08-07T12:53:46;15.20;;;3.38;;
57467;SDS011;43311;51.196;7.518;2023-08-07T12:56:12;12.25;;;2.95;;
57467;SDS011;43311;51.196;7.518;2023-08-07T12:58:38;14.00;;;3.70;;
57467;SDS011;43311;51.196;7.518;2023-08-07T13:01:04;11.50;;;5.05;;
57467;SDS011;43311;51.196;7.518;2023-08-07T13:03:29;9.60;;;2.58;;
57467;SDS011;43311;51.196;7.518;2023-08-07T13:05:55;10.52;;;2.50;;
57467;SDS011;43311;51.196;7.518;2023-08-07T13:08:20;6.28;;;2.30;;
57467;SDS011;43311;51.196;7.518;2023-08-07T13:10:46;10.90;;;2.58;;
57467;SDS011;43311;51.196;7.518;2023-08-07T13:13:12;7.30;;;2.63;;
57467;SDS011;43311;51.196;7.518;2023-08-07T13:15:38;11.63;;;2.80;;
57467;SDS011;43311;51.196;7.518;2023-08-07T13:18:07;6.13;;;2.30;;
57467;SDS011;43311;51.196;7.518;2023-08-07T13:20:35;9.82;;;2.30;;
57467;SDS011;43311;51.196;7.518;2023-08-07T13:23:01;5.28;;;2.28;;
57467;SDS011;43311;51.196;7.518;2023-08-07T13:25:31;9.45;;;2.65;;
57467;SDS011;43311;51.196;7.518;2023-08-07T13:27:57;7.95;;;2.80;;
57467;SDS011;43311;51.196;7.518;2023-08-07T13:30:29;7.63;;;2.50;;
57467;SDS011;43311;51.196;7.518;2023-08-07T13:32:55;10.65;;;2.78;;
57467;SDS011;43311;51.196;7.518;2023-08-07T13:35:21;12.70;;;2.10;;
57467;SDS011;43311;51.196;7.518;2023-08-07T13:37:47;7.97;;;2.58;;
57467;SDS011;43311;51.196;7.518;2023-08-07T13:40:13;11.57;;;2.53;;
57467;SDS011;43311;51.196;7.518;2023-08-07T13:42:39;3.47;;;1.88;;
57467;SDS011;43311;51.196;7.518;2023-08-07T13:45:05;4.82;;;1.60;;
57467;SDS011;43311;51.196;7.518;2023-08-07T13:47:31;7.68;;;2.13;;
57467;SDS011;43311;51.196;7.518;2023-08-07T13:49:57;7.03;;;2.00;;
57467;SDS011;43311;51.196;7.518;2023-08-07T13:52:23;8.90;;;2.83;;
57467;SDS011;43311;51.196;7.518;2023-08-07T13:54:50;7.15;;;2.38;;
57467;SDS011;43311;51.196;7.518;2023-08-07T13:57:16;6.47;;;1.92;;
57467;SDS011;43311;51.196;7.518;2023-08-07T13:59:42;6.88;;;1.85;;
57467;SDS011;43311;51.196;7.518;2023-08-07T14:02:07;7.90;;;2.80;;
57467;SDS011;43311;51.196;7.518;2023-08-07T14:04:33;8.40;;;1.95;;
57467;SDS011;43311;51.196;7.518;2023-08-07T14:06:59;7.68;;;2.00;;
57467;SDS011;43311;51.196;7.518;2023-08-07T14:09:25;6.20;;;1.63;;
57467;SDS011;43311;51.196;7.518;2023-08-07T14:11:50;7.97;;;2.10;;
57467;SDS011;43311;51.196;7.518;2023-08-07T14:14:16;6.93;;;1.80;;
57467;SDS011;43311;51.196;7.518;2023-08-07T14:16:42;7.78;;;2.00;;
57467;SDS011;43311;51.196;7.518;2023-08-07T14:19:08;7.07;;;1.70;;
57467;SDS011;43311;51.196;7.518;2023-08-07T14:21:34;5.70;;;1.95;;
57467;SDS011;43311;51.196;7.518;2023-08-07T14:24:00;5.55;;;1.92;;
57467;SDS011;43311;51.196;7.518;2023-08-07T14:26:25;2.83;;;1.52;;
57467;SDS011;43311;51.196;7.518;2023-08-07T14:28:51;11.00;;;2.45;;
57467;SDS011;43311;51.196;7.518;2023-08-07T14:31:17;10.23;;;2.00;;
57467;SDS011;43311;51.196;7.518;2023-08-07T14:33:43;10.48;;;1.70;;
57467;SDS011;43311;51.196;7.518;2023-08-07T14:36:08;4.20;;;1.63;;
57467;SDS011;43311;51.196;7.518;2023-08-07T14:38:34;7.13;;;1.80;;
57467;SDS011;43311;51.196;7.518;2023-08-07T14:40:59;6.10;;;1.58;;
57467;SDS011;43311;51.196;7.518;2023-08-07T14:43:26;5.68;;;1.77;;
57467;SDS011;43311;51.196;7.518;2023-08-07T14:45:54;6.97;;;1.75;;
57467;SDS011;43311;51.196;7.518;2023-08-07T14:48:20;6.25;;;2.08;;
57467;SDS011;43311;51.196;7.518;2023-08-07T14:50:45;5.70;;;1.63;;
57467;SDS011;43311;51.196;7.518;2023-08-07T14:53:11;4.03;;;1.20;;
57467;SDS011;43311;51.196;7.518;2023-08-07T14:55:36;4.75;;;1.67;;
57467;SDS011;43311;51.196;7.518;2023-08-07T14:58:02;4.15;;;1.30;;
57467;SDS011;43311;51.196;7.518;2023-08-07T15:00:27;6.22;;;1.35;;
57467;SDS011;43311;51.196;7.518;2023-08-07T15:02:53;9.07;;;1.60;;
57467;SDS011;43311;51.196;7.518;2023-08-07T15:05:18;5.30;;;1.35;;
57467;SDS011;43311;51.196;7.518;2023-08-07T15:07:44;5.95;;;1.35;;